sensor_id;sensor_type;location;lat;lon;timestamp;temperature;humidity
16736;DHT22;17990;49.548;9.730;2023-08-06T00:01:57;15.70;99.90
16736;DHT22;17990;49.548;9.730;2023-08-06T00:04:24;15.60;99.90
16736;DHT22;17990;49.548;9.730;2023-08-06T00:06:50;15.60;99.90
16736;DHT22;17990;49.548;9.730;2023-08-06T00:09:17;15.70;99.90
16736;DHT22;17990;49.548;9.730;2023-08-06T00:11:45;15.60;99.90
16736;DHT22;17990;49.548;9.730;2023-08-06T00:14:12;15.60;99.90
16736;DHT22;17990;49.548;9.730;2023-08-06T00:16:42;15.60;99.90
16736;DHT22;17990;49.548;9.730;2023-08-06T00:19:09;15.60;99.90
16736;DHT22;17990;49.548;9.730;2023-08-06T00:21:35;15.50;99.90
16736;DHT22;17990;49.548;9.730;2023-08-06T00:24:02;15.40;99.90
16736;DHT22;17990;49.548;9.730;2023-08-06T00:26:29;15.40;99.90
16736;DHT22;17990;49.548;9.730;2023-08-06T00:28:57;15.30;99.90
16736;DHT22;17990;49.548;9.730;2023-08-06T00:31:24;15.30;99.90
16736;DHT22;17990;49.548;9.730;2023-08-06T00:33:50;15.40;99.90
16736;DHT22;17990;49.548;9.730;2023-08-06T00:36:17;15.40;99.90
16736;DHT22;17990;49.548;9.730;2023-08-06T00:38:44;15.30;99.90
16736;DHT22;17990;49.548;9.730;2023-08-06T00:41:11;15.40;99.90
16736;DHT22;17990;49.548;9.730;2023-08-06T00:43:37;15.40;99.90
16736;DHT22;17990;49.548;9.730;2023-08-06T00:46:05;15.40;99.90
16736;DHT22;17990;49.548;9.730;2023-08-06T00:48:32;15.30;99.90
16736;DHT22;17990;49.548;9.730;2023-08-06T00:51:00;15.30;99.90
16736;DHT22;17990;49.548;9.730;2023-08-06T00:53:27;15.30;99.90
16736;DHT22;17990;49.548;9.730;2023-08-06T00:55:54;15.30;99.90
16736;DHT22;17990;49.548;9.730;2023-08-06T00:58:21;15.30;99.90
16736;DHT22;17990;49.548;9.730;2023-08-06T01:00:48;15.30;99.90
16736;DHT22;17990;49.548;9.730;2023-08-06T01:03:16;15.30;99.90
16736;DHT22;17990;49.548;9.730;2023-08-06T01:05:43;15.30;99.90
16736;DHT22;17990;49.548;9.730;2023-08-06T01:08:16;15.20;99.90
16736;DHT22;17990;49.548;9.730;2023-08-06T01:10:52;15.20;99.90
16736;DHT22;17990;49.548;9.730;2023-08-06T01:13:28;15.10;99.90
16736;DHT22;17990;49.548;9.730;2023-08-06T01:15:59;15.00;99.90
16736;DHT22;17990;49.548;9.730;2023-08-06T01:18:28;15.00;99.90
16736;DHT22;17990;49.548;9.730;2023-08-06T01:20:56;14.90;99.90
16736;DHT22;17990;49.548;9.730;2023-08-06T01:23:23;14.80;99.90
16736;DHT22;17990;49.548;9.730;2023-08-06T01:25:57;14.70;99.90
16736;DHT22;17990;49.548;9.730;2023-08-06T01:28:31;14.70;99.90
16736;DHT22;17990;49.548;9.730;2023-08-06T01:31:02;14.60;99.90
16736;DHT22;17990;49.548;9.730;2023-08-06T01:33:32;14.50;99.90
16736;DHT22;17990;49.548;9.730;2023-08-06T01:36:01;14.50;99.90
16736;DHT22;17990;49.548;9.730;2023-08-06T01:38:28;14.40;99.90
16736;DHT22;17990;49.548;9.730;2023-08-06T01:40:55;14.30;99.90
16736;DHT22;17990;49.548;9.730;2023-08-06T01:43:22;14.30;99.90
16736;DHT22;17990;49.548;9.730;2023-08-06T01:45:48;14.30;99.90
16736;DHT22;17990;49.548;9.730;2023-08-06T01:48:15;14.20;99.90
16736;DHT22;17990;49.548;9.730;2023-08-06T01:50:42;14.10;99.90
16736;DHT22;17990;49.548;9.730;2023-08-06T01:53:10;14.00;99.90
16736;DHT22;17990;49.548;9.730;2023-08-06T01:55:37;14.00;99.90
16736;DHT22;17990;49.548;9.730;2023-08-06T01:58:03;14.10;99.90
16736;DHT22;17990;49.548;9.730;2023-08-06T02:00:30;14.10;99.90
16736;DHT22;17990;49.548;9.730;2023-08-06T02:02:57;14.10;99.90
16736;DHT22;17990;49.548;9.730;2023-08-06T02:05:24;14.10;99.90
16736;DHT22;17990;49.548;9.730;2023-08-06T02:07:50;14.10;99.90
16736;DHT22;17990;49.548;9.730;2023-08-06T02:10:18;14.10;99.90
16736;DHT22;17990;49.548;9.730;2023-08-06T02:12:45;14.10;99.90
16736;DHT22;17990;49.548;9.730;2023-08-06T02:15:12;14.10;99.90
16736;DHT22;17990;49.548;9.730;2023-08-06T02:17:39;14.10;99.90
16736;DHT22;17990;49.548;9.730;2023-08-06T02:20:06;14.00;99.90
16736;DHT22;17990;49.548;9.730;2023-08-06T02:22:33;14.00;99.90
16736;DHT22;17990;49.548;9.730;2023-08-06T02:25:00;13.90;99.90
16736;DHT22;17990;49.548;9.730;2023-08-06T02:27:28;13.80;99.90
16736;DHT22;17990;49.548;9.730;2023-08-06T02:29:55;13.80;99.90
16736;DHT22;17990;49.548;9.730;2023-08-06T02:32:22;13.80;99.90
16736;DHT22;17990;49.548;9.730;2023-08-06T02:34:48;13.70;99.90
16736;DHT22;17990;49.548;9.730;2023-08-06T02:37:15;13.70;99.90
16736;DHT22;17990;49.548;9.730;2023-08-06T02:39:42;13.70;99.90
16736;DHT22;17990;49.548;9.730;2023-08-06T02:42:09;13.80;99.90
16736;DHT22;17990;49.548;9.730;2023-08-06T02:44:37;13.80;99.90
16736;DHT22;17990;49.548;9.730;2023-08-06T02:47:04;13.80;99.90
16736;DHT22;17990;49.548;9.730;2023-08-06T02:49:31;13.90;99.90
16736;DHT22;17990;49.548;9.730;2023-08-06T02:51:58;13.90;99.90
16736;DHT22;17990;49.548;9.730;2023-08-06T02:54:24;14.10;99.90
16736;DHT22;17990;49.548;9.730;2023-08-06T02:56:51;14.10;99.90
16736;DHT22;17990;49.548;9.730;2023-08-06T02:59:18;14.10;99.90
16736;DHT22;17990;49.548;9.730;2023-08-06T03:01:46;14.10;99.90
16736;DHT22;17990;49.548;9.730;2023-08-06T03:04:13;14.20;99.90
16736;DHT22;17990;49.548;9.730;2023-08-06T03:06:39;14.20;99.90
16736;DHT22;17990;49.548;9.730;2023-08-06T03:09:06;14.20;99.90
16736;DHT22;17990;49.548;9.730;2023-08-06T03:11:33;14.20;99.90
16736;DHT22;17990;49.548;9.730;2023-08-06T03:13:59;14.20;99.90
16736;DHT22;17990;49.548;9.730;2023-08-06T03:16:26;14.20;99.90
16736;DHT22;17990;49.548;9.730;2023-08-06T03:18:54;14.10;99.90
16736;DHT22;17990;49.548;9.730;2023-08-06T03:21:21;14.10;99.90
16736;DHT22;17990;49.548;9.730;2023-08-06T03:23:48;14.10;99.90
16736;DHT22;17990;49.548;9.730;2023-08-06T03:26:15;14.10;99.90
16736;DHT22;17990;49.548;9.730;2023-08-06T03:28:41;14.20;99.90
16736;DHT22;17990;49.548;9.730;2023-08-06T03:31:09;14.30;99.90
16736;DHT22;17990;49.548;9.730;2023-08-06T03:33:35;14.30;99.90
16736;DHT22;17990;49.548;9.730;2023-08-06T03:36:04;14.40;99.90
16736;DHT22;17990;49.548;9.730;2023-08-06T03:38:31;14.40;99.90
16736;DHT22;17990;49.548;9.730;2023-08-06T03:40:57;14.30;99.90
16736;DHT22;17990;49.548;9.730;2023-08-06T03:43:24;14.40;99.90
16736;DHT22;17990;49.548;9.730;2023-08-06T03:45:51;14.30;99.90
16736;DHT22;17990;49.548;9.730;2023-08-06T03:48:17;14.30;99.90
16736;DHT22;17990;49.548;9.730;2023-08-06T03:50:44;14.40;99.90
16736;DHT22;17990;49.548;9.730;2023-08-06T03:53:12;14.50;99.90
16736;DHT22;17990;49.548;9.730;2023-08-06T03:55:39;14.60;99.90
16736;DHT22;17990;49.548;9.730;2023-08-06T03:58:06;14.60;99.90
16736;DHT22;17990;49.548;9.730;2023-08-06T04:00:32;14.60;99.90
16736;DHT22;17990;49.548;9.730;2023-08-06T04:02:59;14.60;99.90
16736;DHT22;17990;49.548;9.730;2023-08-06T04:05:26;14.50;99.90
16736;DHT22;17990;49.548;9.730;2023-08-06T04:07:52;14.40;99.90
16736;DHT22;17990;49.548;9.730;2023-08-06T04:10:20;14.40;99.90
16736;DHT22;17990;49.548;9.730;2023-08-06T04:12:47;14.30;99.90
16736;DHT22;17990;49.548;9.730;2023-08-06T04:15:14;14.30;99.90
16736;DHT22;17990;49.548;9.730;2023-08-06T04:17:41;14.40;99.90
16736;DHT22;17990;49.548;9.730;2023-08-06T04:20:08;14.40;99.90
16736;DHT22;17990;49.548;9.730;2023-08-06T04:22:35;14.40;99.90
16736;DHT22;17990;49.548;9.730;2023-08-06T04:25:02;14.40;99.90
16736;DHT22;17990;49.548;9.730;2023-08-06T04:27:30;14.50;99.90
16736;DHT22;17990;49.548;9.730;2023-08-06T04:29:56;14.60;99.90
16736;DHT22;17990;49.548;9.730;2023-08-06T04:32:23;14.60;99.90
16736;DHT22;17990;49.548;9.730;2023-08-06T04:34:51;14.70;99.90
16736;DHT22;17990;49.548;9.730;2023-08-06T04:37:18;14.70;99.90
16736;DHT22;17990;49.548;9.730;2023-08-06T04:39:44;14.80;99.90
16736;DHT22;17990;49.548;9.730;2023-08-06T04:42:11;14.80;99.90
16736;DHT22;17990;49.548;9.730;2023-08-06T04:44:39;14.90;99.90
16736;DHT22;17990;49.548;9.730;2023-08-06T04:47:06;14.90;99.90
16736;DHT22;17990;49.548;9.730;2023-08-06T04:49:33;15.00;99.90
16736;DHT22;17990;49.548;9.730;2023-08-06T04:52:00;15.00;99.90
16736;DHT22;17990;49.548;9.730;2023-08-06T04:54:27;15.00;99.90
16736;DHT22;17990;49.548;9.730;2023-08-06T04:56:53;15.00;99.90
16736;DHT22;17990;49.548;9.730;2023-08-06T04:59:20;15.00;99.90
16736;DHT22;17990;49.548;9.730;2023-08-06T05:01:48;15.00;99.90
16736;DHT22;17990;49.548;9.730;2023-08-06T05:04:15;15.00;99.90
16736;DHT22;17990;49.548;9.730;2023-08-06T05:06:41;15.00;99.90
16736;DHT22;17990;49.548;9.730;2023-08-06T05:09:08;15.10;99.90
16736;DHT22;17990;49.548;9.730;2023-08-06T05:11:35;15.20;99.90
16736;DHT22;17990;49.548;9.730;2023-08-06T05:14:02;15.30;99.90
16736;DHT22;17990;49.548;9.730;2023-08-06T05:16:28;15.30;99.90
16736;DHT22;17990;49.548;9.730;2023-08-06T05:18:56;15.40;99.90
16736;DHT22;17990;49.548;9.730;2023-08-06T05:21:23;15.60;99.90
16736;DHT22;17990;49.548;9.730;2023-08-06T05:23:50;15.70;99.90
16736;DHT22;17990;49.548;9.730;2023-08-06T05:26:16;15.80;99.90
16736;DHT22;17990;49.548;9.730;2023-08-06T05:28:44;15.70;99.90
16736;DHT22;17990;49.548;9.730;2023-08-06T05:31:11;15.90;99.90
16736;DHT22;17990;49.548;9.730;2023-08-06T05:33:38;16.00;99.90
16736;DHT22;17990;49.548;9.730;2023-08-06T05:36:06;16.00;99.90
16736;DHT22;17990;49.548;9.730;2023-08-06T05:38:33;16.00;99.90
16736;DHT22;17990;49.548;9.730;2023-08-06T05:41:00;15.90;99.90
16736;DHT22;17990;49.548;9.730;2023-08-06T05:43:26;15.80;99.90
16736;DHT22;17990;49.548;9.730;2023-08-06T05:45:53;15.90;99.90
16736;DHT22;17990;49.548;9.730;2023-08-06T05:48:20;15.70;99.90
16736;DHT22;17990;49.548;9.730;2023-08-06T05:50:48;15.80;99.90
16736;DHT22;17990;49.548;9.730;2023-08-06T05:53:16;15.90;99.90
16736;DHT22;17990;49.548;9.730;2023-08-06T05:55:43;15.90;99.90
16736;DHT22;17990;49.548;9.730;2023-08-06T05:58:10;16.00;99.90
16736;DHT22;17990;49.548;9.730;2023-08-06T06:00:36;16.00;99.90
16736;DHT22;17990;49.548;9.730;2023-08-06T06:03:03;15.90;99.90
16736;DHT22;17990;49.548;9.730;2023-08-06T06:05:30;15.90;99.90
16736;DHT22;17990;49.548;9.730;2023-08-06T06:07:56;15.90;99.90
16736;DHT22;17990;49.548;9.730;2023-08-06T06:10:24;15.90;99.90
16736;DHT22;17990;49.548;9.730;2023-08-06T06:12:51;15.90;99.90
16736;DHT22;17990;49.548;9.730;2023-08-06T06:15:18;15.90;99.90
16736;DHT22;17990;49.548;9.730;2023-08-06T06:17:44;16.00;99.90
16736;DHT22;17990;49.548;9.730;2023-08-06T06:20:11;16.00;99.90
16736;DHT22;17990;49.548;9.730;2023-08-06T06:22:38;16.10;99.90
16736;DHT22;17990;49.548;9.730;2023-08-06T06:25:06;16.10;99.90
16736;DHT22;17990;49.548;9.730;2023-08-06T06:27:34;16.00;99.90
16736;DHT22;17990;49.548;9.730;2023-08-06T06:30:01;15.90;99.90
16736;DHT22;17990;49.548;9.730;2023-08-06T06:32:28;15.90;99.90
16736;DHT22;17990;49.548;9.730;2023-08-06T06:34:55;15.90;99.90
16736;DHT22;17990;49.548;9.730;2023-08-06T06:37:21;15.90;99.90
16736;DHT22;17990;49.548;9.730;2023-08-06T06:39:48;16.00;99.90
16736;DHT22;17990;49.548;9.730;2023-08-06T06:42:15;16.00;99.90
16736;DHT22;17990;49.548;9.730;2023-08-06T06:44:43;16.00;99.90
16736;DHT22;17990;49.548;9.730;2023-08-06T06:47:10;16.10;99.90
16736;DHT22;17990;49.548;9.730;2023-08-06T06:49:36;16.10;99.90
16736;DHT22;17990;49.548;9.730;2023-08-06T06:52:04;16.20;99.90
16736;DHT22;17990;49.548;9.730;2023-08-06T06:54:31;16.20;99.90
16736;DHT22;17990;49.548;9.730;2023-08-06T06:56:57;16.20;99.90
16736;DHT22;17990;49.548;9.730;2023-08-06T06:59:24;16.20;99.90
16736;DHT22;17990;49.548;9.730;2023-08-06T07:01:52;16.30;99.90
16736;DHT22;17990;49.548;9.730;2023-08-06T07:04:19;16.20;99.90
16736;DHT22;17990;49.548;9.730;2023-08-06T07:06:45;16.20;99.90
16736;DHT22;17990;49.548;9.730;2023-08-06T07:09:12;16.30;99.90
16736;DHT22;17990;49.548;9.730;2023-08-06T07:11:39;16.40;99.90
16736;DHT22;17990;49.548;9.730;2023-08-06T07:14:09;16.50;99.90
16736;DHT22;17990;49.548;9.730;2023-08-06T07:16:35;16.70;99.90
16736;DHT22;17990;49.548;9.730;2023-08-06T07:19:04;16.80;99.90
16736;DHT22;17990;49.548;9.730;2023-08-06T07:21:31;16.80;99.90
16736;DHT22;17990;49.548;9.730;2023-08-06T07:23:58;16.80;99.90
16736;DHT22;17990;49.548;9.730;2023-08-06T07:26:25;16.80;99.90
16736;DHT22;17990;49.548;9.730;2023-08-06T07:28:52;17.00;99.90
16736;DHT22;17990;49.548;9.730;2023-08-06T07:31:18;17.10;99.90
16736;DHT22;17990;49.548;9.730;2023-08-06T07:33:45;17.10;99.90
16736;DHT22;17990;49.548;9.730;2023-08-06T07:36:14;17.00;99.90
16736;DHT22;17990;49.548;9.730;2023-08-06T07:38:41;16.90;99.90
16736;DHT22;17990;49.548;9.730;2023-08-06T07:41:08;16.90;99.90
16736;DHT22;17990;49.548;9.730;2023-08-06T07:43:35;16.80;99.90
16736;DHT22;17990;49.548;9.730;2023-08-06T07:46:02;16.80;99.90
16736;DHT22;17990;49.548;9.730;2023-08-06T07:48:29;16.80;99.90
16736;DHT22;17990;49.548;9.730;2023-08-06T07:50:56;16.80;99.90
16736;DHT22;17990;49.548;9.730;2023-08-06T07:53:25;16.80;99.90
16736;DHT22;17990;49.548;9.730;2023-08-06T07:55:55;16.60;99.90
16736;DHT22;17990;49.548;9.730;2023-08-06T07:58:24;16.80;99.90
16736;DHT22;17990;49.548;9.730;2023-08-06T08:00:51;17.10;99.90
16736;DHT22;17990;49.548;9.730;2023-08-06T08:03:17;17.20;99.90
16736;DHT22;17990;49.548;9.730;2023-08-06T08:05:45;17.40;99.90
16736;DHT22;17990;49.548;9.730;2023-08-06T08:08:12;17.40;99.90
16736;DHT22;17990;49.548;9.730;2023-08-06T08:10:40;17.40;99.90
16736;DHT22;17990;49.548;9.730;2023-08-06T08:13:07;17.40;99.90
16736;DHT22;17990;49.548;9.730;2023-08-06T08:15:34;17.40;99.90
16736;DHT22;17990;49.548;9.730;2023-08-06T08:18:01;17.40;99.90
16736;DHT22;17990;49.548;9.730;2023-08-06T08:20:28;17.50;99.90
16736;DHT22;17990;49.548;9.730;2023-08-06T08:22:58;17.70;99.90
16736;DHT22;17990;49.548;9.730;2023-08-06T08:25:24;17.80;99.90
16736;DHT22;17990;49.548;9.730;2023-08-06T08:27:53;17.60;99.90
16736;DHT22;17990;49.548;9.730;2023-08-06T08:30:20;17.50;99.90
16736;DHT22;17990;49.548;9.730;2023-08-06T08:32:47;17.50;99.90
16736;DHT22;17990;49.548;9.730;2023-08-06T08:35:14;17.60;99.90
16736;DHT22;17990;49.548;9.730;2023-08-06T08:37:41;17.50;99.90
16736;DHT22;17990;49.548;9.730;2023-08-06T08:40:09;17.50;99.90
16736;DHT22;17990;49.548;9.730;2023-08-06T08:42:36;17.50;99.90
16736;DHT22;17990;49.548;9.730;2023-08-06T08:45:07;17.50;99.90
16736;DHT22;17990;49.548;9.730;2023-08-06T08:47:36;17.50;99.90
16736;DHT22;17990;49.548;9.730;2023-08-06T08:50:06;17.50;99.90
16736;DHT22;17990;49.548;9.730;2023-08-06T08:52:33;17.40;99.90
16736;DHT22;17990;49.548;9.730;2023-08-06T08:55:02;17.50;99.90
16736;DHT22;17990;49.548;9.730;2023-08-06T08:57:28;17.50;99.90
16736;DHT22;17990;49.548;9.730;2023-08-06T08:59:55;17.60;99.90
16736;DHT22;17990;49.548;9.730;2023-08-06T09:02:26;17.60;99.90
16736;DHT22;17990;49.548;9.730;2023-08-06T09:04:56;17.70;99.90
16736;DHT22;17990;49.548;9.730;2023-08-06T09:07:25;18.10;99.90
16736;DHT22;17990;49.548;9.730;2023-08-06T09:09:53;18.50;99.90
16736;DHT22;17990;49.548;9.730;2023-08-06T09:12:22;18.80;99.90
16736;DHT22;17990;49.548;9.730;2023-08-06T09:14:48;18.70;99.90
16736;DHT22;17990;49.548;9.730;2023-08-06T09:17:16;18.60;99.90
16736;DHT22;17990;49.548;9.730;2023-08-06T09:19:46;18.80;99.90
16736;DHT22;17990;49.548;9.730;2023-08-06T09:22:15;18.70;99.90
16736;DHT22;17990;49.548;9.730;2023-08-06T09:24:42;18.80;99.90
16736;DHT22;17990;49.548;9.730;2023-08-06T09:27:12;19.00;99.90
16736;DHT22;17990;49.548;9.730;2023-08-06T09:29:41;18.90;99.90
16736;DHT22;17990;49.548;9.730;2023-08-06T09:32:08;18.80;99.90
16736;DHT22;17990;49.548;9.730;2023-08-06T09:34:35;18.70;99.90
16736;DHT22;17990;49.548;9.730;2023-08-06T09:37:03;18.90;99.90
16736;DHT22;17990;49.548;9.730;2023-08-06T09:39:31;19.10;99.90
16736;DHT22;17990;49.548;9.730;2023-08-06T09:41:58;19.10;99.90
16736;DHT22;17990;49.548;9.730;2023-08-06T09:44:26;19.20;99.90
16736;DHT22;17990;49.548;9.730;2023-08-06T09:46:53;19.10;99.90
16736;DHT22;17990;49.548;9.730;2023-08-06T09:49:24;19.10;99.90
16736;DHT22;17990;49.548;9.730;2023-08-06T09:51:52;19.20;99.90
16736;DHT22;17990;49.548;9.730;2023-08-06T09:54:23;19.20;99.90
16736;DHT22;17990;49.548;9.730;2023-08-06T09:56:50;19.30;99.90
16736;DHT22;17990;49.548;9.730;2023-08-06T09:59:17;19.80;99.90
16736;DHT22;17990;49.548;9.730;2023-08-06T10:01:45;20.00;99.90
16736;DHT22;17990;49.548;9.730;2023-08-06T10:04:14;20.20;99.90
16736;DHT22;17990;49.548;9.730;2023-08-06T10:06:42;20.00;99.90
16736;DHT22;17990;49.548;9.730;2023-08-06T10:09:09;19.90;99.90
16736;DHT22;17990;49.548;9.730;2023-08-06T10:11:38;19.50;99.90
16736;DHT22;17990;49.548;9.730;2023-08-06T10:14:08;19.20;99.90
16736;DHT22;17990;49.548;9.730;2023-08-06T10:16:37;19.10;99.90
16736;DHT22;17990;49.548;9.730;2023-08-06T10:19:05;19.70;99.90
16736;DHT22;17990;49.548;9.730;2023-08-06T10:21:34;19.90;99.90
16736;DHT22;17990;49.548;9.730;2023-08-06T10:24:00;20.30;99.90
16736;DHT22;17990;49.548;9.730;2023-08-06T10:26:29;20.40;99.90
16736;DHT22;17990;49.548;9.730;2023-08-06T10:28:57;20.60;99.90
16736;DHT22;17990;49.548;9.730;2023-08-06T10:31:55;20.50;99.90
16736;DHT22;17990;49.548;9.730;2023-08-06T10:34:25;20.60;99.90
16736;DHT22;17990;49.548;9.730;2023-08-06T10:36:54;20.20;99.90
16736;DHT22;17990;49.548;9.730;2023-08-06T10:39:21;20.10;99.90
16736;DHT22;17990;49.548;9.730;2023-08-06T10:41:48;20.00;99.90
16736;DHT22;17990;49.548;9.730;2023-08-06T10:44:16;20.00;99.90
16736;DHT22;17990;49.548;9.730;2023-08-06T10:46:43;19.80;99.90
16736;DHT22;17990;49.548;9.730;2023-08-06T10:49:17;19.60;99.90
16736;DHT22;17990;49.548;9.730;2023-08-06T10:51:45;19.70;99.90
16736;DHT22;17990;49.548;9.730;2023-08-06T10:54:12;19.60;99.90
16736;DHT22;17990;49.548;9.730;2023-08-06T10:56:40;19.50;99.90
16736;DHT22;17990;49.548;9.730;2023-08-06T10:59:08;19.60;99.90
16736;DHT22;17990;49.548;9.730;2023-08-06T11:01:37;20.50;99.90
16736;DHT22;17990;49.548;9.730;2023-08-06T11:04:04;21.10;99.90
16736;DHT22;17990;49.548;9.730;2023-08-06T11:06:32;21.30;99.90
16736;DHT22;17990;49.548;9.730;2023-08-06T11:08:59;21.30;99.90
16736;DHT22;17990;49.548;9.730;2023-08-06T11:11:26;21.50;99.90
16736;DHT22;17990;49.548;9.730;2023-08-06T11:13:52;21.80;99.90
16736;DHT22;17990;49.548;9.730;2023-08-06T11:16:21;22.40;99.90
16736;DHT22;17990;49.548;9.730;2023-08-06T11:18:51;22.70;99.90
16736;DHT22;17990;49.548;9.730;2023-08-06T11:21:19;22.70;99.90
16736;DHT22;17990;49.548;9.730;2023-08-06T11:23:46;22.40;99.90
16736;DHT22;17990;49.548;9.730;2023-08-06T11:26:18;22.10;99.90
16736;DHT22;17990;49.548;9.730;2023-08-06T11:28:45;21.50;99.90
16736;DHT22;17990;49.548;9.730;2023-08-06T11:31:18;21.20;99.90
16736;DHT22;17990;49.548;9.730;2023-08-06T11:33:45;20.80;99.90
16736;DHT22;17990;49.548;9.730;2023-08-06T11:36:13;20.20;99.90
16736;DHT22;17990;49.548;9.730;2023-08-06T11:38:40;19.60;99.90
16736;DHT22;17990;49.548;9.730;2023-08-06T11:41:07;19.40;99.90
16736;DHT22;17990;49.548;9.730;2023-08-06T11:43:34;19.40;99.90
16736;DHT22;17990;49.548;9.730;2023-08-06T11:46:01;19.30;99.90
16736;DHT22;17990;49.548;9.730;2023-08-06T11:48:28;19.10;99.90
16736;DHT22;17990;49.548;9.730;2023-08-06T11:50:55;19.10;99.90
16736;DHT22;17990;49.548;9.730;2023-08-06T11:53:27;19.30;99.90
16736;DHT22;17990;49.548;9.730;2023-08-06T11:55:55;19.30;99.90
16736;DHT22;17990;49.548;9.730;2023-08-06T11:58:21;18.90;99.90
16736;DHT22;17990;49.548;9.730;2023-08-06T12:00:48;18.80;99.90
16736;DHT22;17990;49.548;9.730;2023-08-06T12:03:18;19.00;99.90
16736;DHT22;17990;49.548;9.730;2023-08-06T12:05:45;19.30;99.90
16736;DHT22;17990;49.548;9.730;2023-08-06T12:08:13;20.00;99.90
16736;DHT22;17990;49.548;9.730;2023-08-06T12:10:41;20.30;99.90
16736;DHT22;17990;49.548;9.730;2023-08-06T12:13:07;20.90;99.90
16736;DHT22;17990;49.548;9.730;2023-08-06T12:15:34;21.00;99.90
16736;DHT22;17990;49.548;9.730;2023-08-06T12:18:01;20.50;99.90
16736;DHT22;17990;49.548;9.730;2023-08-06T12:20:27;20.20;99.90
16736;DHT22;17990;49.548;9.730;2023-08-06T12:22:54;19.70;99.90
16736;DHT22;17990;49.548;9.730;2023-08-06T12:25:21;19.50;99.90
16736;DHT22;17990;49.548;9.730;2023-08-06T12:27:50;19.60;99.90
16736;DHT22;17990;49.548;9.730;2023-08-06T12:30:17;19.60;99.90
16736;DHT22;17990;49.548;9.730;2023-08-06T12:32:44;19.60;99.90
16736;DHT22;17990;49.548;9.730;2023-08-06T12:35:11;19.40;99.90
16736;DHT22;17990;49.548;9.730;2023-08-06T12:37:39;19.20;99.90
16736;DHT22;17990;49.548;9.730;2023-08-06T12:40:07;19.20;99.90
16736;DHT22;17990;49.548;9.730;2023-08-06T12:42:33;19.00;99.90
16736;DHT22;17990;49.548;9.730;2023-08-06T12:45:02;18.90;99.90
16736;DHT22;17990;49.548;9.730;2023-08-06T12:47:28;18.80;99.90
16736;DHT22;17990;49.548;9.730;2023-08-06T12:49:55;18.80;99.90
16736;DHT22;17990;49.548;9.730;2023-08-06T12:52:22;18.80;99.90
16736;DHT22;17990;49.548;9.730;2023-08-06T12:54:49;18.60;99.90
16736;DHT22;17990;49.548;9.730;2023-08-06T12:57:15;18.40;99.90
16736;DHT22;17990;49.548;9.730;2023-08-06T12:59:42;18.50;99.90
16736;DHT22;17990;49.548;9.730;2023-08-06T13:02:11;18.90;99.90
16736;DHT22;17990;49.548;9.730;2023-08-06T13:04:37;19.00;99.90
16736;DHT22;17990;49.548;9.730;2023-08-06T13:07:05;19.20;99.90
16736;DHT22;17990;49.548;9.730;2023-08-06T13:09:32;19.30;99.90
16736;DHT22;17990;49.548;9.730;2023-08-06T13:11:59;19.30;99.90
16736;DHT22;17990;49.548;9.730;2023-08-06T13:14:30;19.50;99.90
16736;DHT22;17990;49.548;9.730;2023-08-06T13:16:57;19.60;99.90
16736;DHT22;17990;49.548;9.730;2023-08-06T13:19:25;19.20;99.90
16736;DHT22;17990;49.548;9.730;2023-08-06T13:22:03;18.90;99.90
16736;DHT22;17990;49.548;9.730;2023-08-06T13:24:32;18.50;99.90
16736;DHT22;17990;49.548;9.730;2023-08-06T13:26:58;18.30;99.90
16736;DHT22;17990;49.548;9.730;2023-08-06T13:29:25;18.10;99.90
16736;DHT22;17990;49.548;9.730;2023-08-06T13:31:53;18.00;99.90
16736;DHT22;17990;49.548;9.730;2023-08-06T13:34:20;17.90;99.90
16736;DHT22;17990;49.548;9.730;2023-08-06T13:36:48;17.80;99.90
16736;DHT22;17990;49.548;9.730;2023-08-06T13:39:15;17.80;99.90
16736;DHT22;17990;49.548;9.730;2023-08-06T13:41:42;17.90;99.90
16736;DHT22;17990;49.548;9.730;2023-08-06T13:44:09;17.80;99.90
16736;DHT22;17990;49.548;9.730;2023-08-06T13:46:39;17.80;99.90
16736;DHT22;17990;49.548;9.730;2023-08-06T13:49:06;17.60;99.90
16736;DHT22;17990;49.548;9.730;2023-08-06T13:51:33;17.60;99.90
16736;DHT22;17990;49.548;9.730;2023-08-06T13:54:02;17.70;99.90
16736;DHT22;17990;49.548;9.730;2023-08-06T13:56:29;17.80;99.90
16736;DHT22;17990;49.548;9.730;2023-08-06T13:58:56;17.70;99.90
16736;DHT22;17990;49.548;9.730;2023-08-06T14:01:23;17.70;99.90
16736;DHT22;17990;49.548;9.730;2023-08-06T14:03:49;17.80;99.90
16736;DHT22;17990;49.548;9.730;2023-08-06T14:06:16;17.80;99.90
16736;DHT22;17990;49.548;9.730;2023-08-06T14:08:43;17.80;99.90
16736;DHT22;17990;49.548;9.730;2023-08-06T14:11:11;17.70;99.90
16736;DHT22;17990;49.548;9.730;2023-08-06T14:13:38;17.80;99.90
16736;DHT22;17990;49.548;9.730;2023-08-06T14:16:04;17.70;99.90
16736;DHT22;17990;49.548;9.730;2023-08-06T14:18:31;17.70;99.90
16736;DHT22;17990;49.548;9.730;2023-08-06T14:20:58;17.60;99.90
16736;DHT22;17990;49.548;9.730;2023-08-06T14:23:24;17.60;99.90
16736;DHT22;17990;49.548;9.730;2023-08-06T14:25:51;17.60;99.90
16736;DHT22;17990;49.548;9.730;2023-08-06T14:28:19;17.50;99.90
16736;DHT22;17990;49.548;9.730;2023-08-06T14:30:46;17.60;99.90
16736;DHT22;17990;49.548;9.730;2023-08-06T14:33:13;17.60;99.90
16736;DHT22;17990;49.548;9.730;2023-08-06T14:35:39;17.50;99.90
16736;DHT22;17990;49.548;9.730;2023-08-06T14:38:06;17.40;99.90
16736;DHT22;17990;49.548;9.730;2023-08-06T14:40:33;17.20;99.90
16736;DHT22;17990;49.548;9.730;2023-08-06T14:43:03;17.10;99.90
16736;DHT22;17990;49.548;9.730;2023-08-06T14:45:31;17.20;99.90
16736;DHT22;17990;49.548;9.730;2023-08-06T14:47:58;17.20;99.90
16736;DHT22;17990;49.548;9.730;2023-08-06T14:50:25;17.30;99.90
16736;DHT22;17990;49.548;9.730;2023-08-06T14:52:51;17.60;99.90
16736;DHT22;17990;49.548;9.730;2023-08-06T14:55:24;17.80;99.90
16736;DHT22;17990;49.548;9.730;2023-08-06T14:57:51;18.00;99.90
16736;DHT22;17990;49.548;9.730;2023-08-06T15:00:18;18.00;99.90
16736;DHT22;17990;49.548;9.730;2023-08-06T15:02:46;17.90;99.90
16736;DHT22;17990;49.548;9.730;2023-08-06T15:05:13;17.80;99.90
16736;DHT22;17990;49.548;9.730;2023-08-06T15:07:40;17.70;99.90
16736;DHT22;17990;49.548;9.730;2023-08-06T15:10:07;17.80;99.90
16736;DHT22;17990;49.548;9.730;2023-08-06T15:12:34;17.90;99.90
16736;DHT22;17990;49.548;9.730;2023-08-06T15:15:01;18.00;99.90
16736;DHT22;17990;49.548;9.730;2023-08-06T15:17:28;18.00;99.90
16736;DHT22;17990;49.548;9.730;2023-08-06T15:19:57;17.90;99.90
16736;DHT22;17990;49.548;9.730;2023-08-06T15:22:24;18.00;99.90
16736;DHT22;17990;49.548;9.730;2023-08-06T15:24:51;17.80;99.90
16736;DHT22;17990;49.548;9.730;2023-08-06T15:27:17;17.70;99.90
16736;DHT22;17990;49.548;9.730;2023-08-06T15:29:44;17.60;99.90
16736;DHT22;17990;49.548;9.730;2023-08-06T15:32:11;17.70;99.90